Time;durP1;ratioP1;P1;durP2;ratioP2;P2;SDS_P1;SDS_P2;PMS_P1;PMS_P2;Temp;Humidity;BMP_temperature;BMP_pressure;BME280_temperature;BME280_humidity;BME280_pressure;Samples;Min_cycle;Max_cycle;Signal;HPM_P1;HPM_P2
2022/08/09 00:00:30;;;;;;;5.23;4.30;;;19.00;98.10;;;;;;5058486;28;20460;-75
2022/08/09 00:02:57;;;;;;;9.30;4.10;;;19.00;98.40;;;;;;5057038;28;20900;-75
2022/08/09 00:05:23;;;;;;;7.73;4.30;;;19.00;98.70;;;;;;5059206;28;20560;-75
2022/08/09 00:07:51;;;;;;;4.20;3.83;;;19.00;98.90;;;;;;5060793;28;20476;-75
2022/08/09 00:10:18;;;;;;;4.53;3.87;;;18.90;99.00;;;;;;5059005;28;20435;-75
2022/08/09 00:12:45;;;;;;;4.33;3.97;;;18.90;99.30;;;;;;5062562;28;20794;-75
2022/08/09 00:15:11;;;;;;;4.50;4.10;;;18.80;99.50;;;;;;5060126;28;20422;-75
2022/08/09 00:17:38;;;;;;;5.20;4.03;;;18.80;99.90;;;;;;5065518;28;20434;-75
2022/08/09 00:20:06;;;;;;;6.47;4.03;;;18.70;99.90;;;;;;5064904;28;20473;-75
2022/08/09 00:22:32;;;;;;;4.57;4.17;;;18.70;99.90;;;;;;5062187;28;20470;-75
2022/08/09 00:25:01;;;;;;;5.37;4.40;;;18.60;99.90;;;;;;5062425;28;20497;-75
2022/08/09 00:27:27;;;;;;;5.33;3.87;;;18.60;99.90;;;;;;5061893;28;20427;-75
2022/08/09 00:29:54;;;;;;;8.63;3.63;;;18.60;99.90;;;;;;5067748;28;20448;-75
2022/08/09 00:32:21;;;;;;;5.17;4.67;;;18.60;99.90;;;;;;5061508;28;20447;-75
2022/08/09 00:34:48;;;;;;;4.83;4.43;;;18.60;99.90;;;;;;5062249;28;20948;-75
2022/08/09 00:37:15;;;;;;;4.90;4.40;;;18.50;99.90;;;;;;5057363;28;20482;-75
2022/08/09 00:39:41;;;;;;;4.70;4.20;;;18.50;99.90;;;;;;5059531;28;21044;-75
2022/08/09 00:42:09;;;;;;;8.73;4.57;;;18.50;99.90;;;;;;5063205;28;20495;-76
2022/08/09 00:44:36;;;;;;;5.27;4.20;;;18.40;99.90;;;;;;5055682;28;20444;-75
2022/08/09 00:47:03;;;;;;;6.97;4.50;;;18.40;99.90;;;;;;5060943;28;20464;-75
2022/08/09 00:49:29;;;;;;;4.97;4.47;;;18.40;99.90;;;;;;5055983;28;20431;-75
2022/08/09 00:51:56;;;;;;;5.90;4.60;;;18.30;99.90;;;;;;5061522;28;21027;-75
2022/08/09 00:54:23;;;;;;;5.50;4.20;;;18.20;99.90;;;;;;5059469;28;20444;-75
2022/08/09 00:56:50;;;;;;;7.03;4.70;;;18.20;99.90;;;;;;5056333;28;20516;-75
2022/08/09 00:59:18;;;;;;;7.93;4.40;;;18.10;99.90;;;;;;5058964;28;20514;-75
2022/08/09 01:01:47;;;;;;;8.97;4.50;;;18.00;99.90;;;;;;5053536;28;20497;-75
2022/08/09 01:04:22;;;;;;;6.10;4.43;;;18.00;99.90;;;;;;5060591;28;20501;-75
2022/08/09 01:06:57;;;;;;;5.37;4.43;;;17.90;99.90;;;;;;5058915;28;20448;-75
2022/08/09 01:09:31;;;;;;;5.90;4.17;;;17.90;99.90;;;;;;5060497;28;20425;-75
2022/08/09 01:12:02;;;;;;;5.20;4.30;;;17.90;99.90;;;;;;5059989;28;20501;-75
2022/08/09 01:14:33;;;;;;;4.40;4.10;;;17.90;99.90;;;;;;5060758;28;20662;-75
2022/08/09 01:17:07;;;;;;;5.47;3.90;;;17.80;99.90;;;;;;5061241;28;20831;-75
2022/08/09 01:19:43;;;;;;;4.93;4.40;;;17.80;99.90;;;;;;5057515;28;20444;-75
2022/08/09 01:22:45;;;;;;;5.50;4.60;;;17.80;99.90;;;;;;5063015;28;20825;-75
2022/08/09 01:25:50;;;;;;;5.20;4.77;;;17.70;99.90;;;;;;5058808;28;20448;-75
2022/08/09 01:28:20;;;;;;;7.10;4.50;;;17.70;99.90;;;;;;5053371;28;20867;-75
2022/08/09 01:30:47;;;;;;;6.60;4.63;;;17.60;99.90;;;;;;5069601;28;20434;-75
2022/08/09 01:33:15;;;;;;;4.90;4.40;;;17.60;99.90;;;;;;5063949;28;20423;-75
2022/08/09 01:35:48;;;;;;;5.90;4.60;;;17.60;99.90;;;;;;5063155;28;20833;-75
2022/08/09 01:38:19;;;;;;;7.73;4.40;;;17.60;99.90;;;;;;5059495;28;20539;-75
2022/08/09 01:40:50;;;;;;;7.57;5.80;;;17.50;99.90;;;;;;5060480;28;20445;-75
2022/08/09 01:43:19;;;;;;;5.30;4.20;;;17.50;99.90;;;;;;5059120;28;20542;-75
2022/08/09 01:45:47;;;;;;;5.17;4.67;;;17.50;99.90;;;;;;5064397;28;20448;-75
2022/08/09 01:48:16;;;;;;;5.50;4.50;;;17.50;99.90;;;;;;5060865;28;20461;-75
2022/08/09 01:50:44;;;;;;;8.63;4.60;;;17.50;99.90;;;;;;5062511;28;20442;-75
2022/08/09 01:53:12;;;;;;;8.43;4.83;;;17.50;99.90;;;;;;5056349;28;20445;-75
2022/08/09 01:55:40;;;;;;;9.43;4.40;;;17.50;99.90;;;;;;5053369;28;20449;-75
2022/08/09 01:58:08;;;;;;;5.83;4.40;;;17.50;99.90;;;;;;5057219;28;20420;-75
2022/08/09 02:00:36;;;;;;;4.20;3.90;;;17.50;99.90;;;;;;5057950;28;20453;-75
2022/08/09 02:03:06;;;;;;;8.00;4.60;;;17.40;99.90;;;;;;5059582;28;20450;-75
2022/08/09 02:05:34;;;;;;;5.80;4.50;;;17.40;99.90;;;;;;5058249;28;20782;-75
2022/08/09 02:08:05;;;;;;;6.77;4.90;;;17.40;99.90;;;;;;5061008;28;21668;-75
2022/08/09 02:10:36;;;;;;;11.10;4.43;;;17.30;99.90;;;;;;5058319;28;20419;-75
2022/08/09 02:13:06;;;;;;;4.50;4.00;;;17.30;99.90;;;;;;5062472;28;20422;-75
2022/08/09 02:15:38;;;;;;;4.53;4.13;;;17.30;99.90;;;;;;5051457;28;20518;-75
2022/08/09 02:18:06;;;;;;;6.80;4.47;;;17.20;99.90;;;;;;5057108;28;20889;-75
2022/08/09 02:20:37;;;;;;;8.60;5.23;;;17.20;99.90;;;;;;5058651;28;20444;-75
2022/08/09 02:23:09;;;;;;;10.17;4.97;;;17.20;99.90;;;;;;5055791;28;20797;-75
2022/08/09 02:25:40;;;;;;;6.60;4.40;;;17.20;99.90;;;;;;5054098;28;20453;-75
2022/08/09 02:28:10;;;;;;;5.87;4.90;;;17.10;99.90;;;;;;5056926;28;21010;-75
2022/08/09 02:30:43;;;;;;;5.10;4.50;;;17.10;99.90;;;;;;5057977;28;20442;-75
2022/08/09 02:33:14;;;;;;;6.30;4.73;;;17.10;99.90;;;;;;5060580;28;20418;-75
2022/08/09 02:35:42;;;;;;;7.70;4.93;;;17.00;99.90;;;;;;5060550;28;20418;-75
2022/08/09 02:38:10;;;;;;;5.20;4.23;;;17.00;99.90;;;;;;5053902;28;20427;-75
2022/08/09 02:40:39;;;;;;;7.60;4.87;;;17.00;99.90;;;;;;5056565;28;20470;-75
2022/08/09 02:43:09;;;;;;;8.43;4.33;;;16.90;99.90;;;;;;5060362;28;20455;-75
2022/08/09 02:45:43;;;;;;;6.33;5.13;;;16.90;99.90;;;;;;5059734;28;20444;-75
2022/08/09 02:48:14;;;;;;;5.80;4.87;;;16.90;99.90;;;;;;5065070;28;20455;-75
2022/08/09 02:50:44;;;;;;;4.77;4.37;;;16.90;99.90;;;;;;5063316;28;20891;-74
2022/08/09 02:53:16;;;;;;;8.90;4.50;;;16.80;99.90;;;;;;5055019;28;21037;-74
2022/08/09 02:55:47;;;;;;;6.57;5.03;;;16.80;99.90;;;;;;5054299;28;20457;-74
2022/08/09 02:58:16;;;;;;;5.60;4.97;;;16.80;99.90;;;;;;5059406;28;20444;-75
2022/08/09 03:00:45;;;;;;;8.17;4.87;;;16.70;99.90;;;;;;5059903;28;20888;-74
2022/08/09 03:03:13;;;;;;;6.67;4.57;;;16.70;99.90;;;;;;5055282;28;20455;-74
2022/08/09 03:05:41;;;;;;;6.00;5.00;;;16.70;99.90;;;;;;5057757;28;20940;-74
2022/08/09 03:08:10;;;;;;;9.10;5.13;;;16.70;99.90;;;;;;5056151;28;20479;-74
2022/08/09 03:10:38;;;;;;;7.90;4.87;;;16.60;99.90;;;;;;5054685;28;20464;-74
2022/08/09 03:13:05;;;;;;;7.20;4.70;;;16.60;99.90;;;;;;5062527;28;20456;-74
2022/08/09 03:15:33;;;;;;;5.53;4.23;;;16.60;99.90;;;;;;5063029;28;20884;-74
2022/08/09 03:18:02;;;;;;;7.27;4.77;;;16.60;99.90;;;;;;5060807;28;20502;-74
2022/08/09 03:20:30;;;;;;;11.13;5.87;;;16.60;99.90;;;;;;5051955;28;20453;-74
2022/08/09 03:22:58;;;;;;;5.40;4.77;;;16.50;99.90;;;;;;5060285;28;20974;-74
2022/08/09 03:25:25;;;;;;;5.93;4.77;;;16.50;99.90;;;;;;5066581;28;20455;-74
2022/08/09 03:27:52;;;;;;;10.50;5.63;;;16.50;99.90;;;;;;5053044;28;20451;-74
2022/08/09 03:30:19;;;;;;;5.60;4.43;;;16.50;99.90;;;;;;5054798;28;20964;-74
2022/08/09 03:32:46;;;;;;;5.20;4.70;;;16.50;99.90;;;;;;5061784;28;20443;-74
2022/08/09 03:35:14;;;;;;;8.77;5.00;;;16.40;99.90;;;;;;5056137;28;20456;-74
2022/08/09 03:37:41;;;;;;;6.37;4.83;;;16.40;99.90;;;;;;5064785;28;20493;-74
2022/08/09 03:40:09;;;;;;;6.70;5.30;;;16.40;99.90;;;;;;5062803;28;20455;-75
2022/08/09 03:42:36;;;;;;;8.20;5.03;;;16.40;99.90;;;;;;5061174;28;21055;-74
2022/08/09 03:45:03;;;;;;;5.33;4.80;;;16.30;99.90;;;;;;5056111;28;20530;-74
2022/08/09 03:47:30;;;;;;;5.40;4.87;;;16.30;99.90;;;;;;5060326;28;20514;-74
2022/08/09 03:49:58;;;;;;;5.93;4.40;;;16.30;99.90;;;;;;5050635;28;20546;-74
2022/08/09 03:52:27;;;;;;;7.80;4.53;;;16.30;99.90;;;;;;5060525;28;20998;-75
2022/08/09 03:54:56;;;;;;;10.97;4.43;;;16.20;99.90;;;;;;5063365;28;20449;-75
2022/08/09 03:57:22;;;;;;;8.67;5.10;;;16.20;99.90;;;;;;5050936;28;20464;-75
2022/08/09 03:59:50;;;;;;;5.37;4.80;;;16.20;99.90;;;;;;5056178;28;20533;-75
2022/08/09 04:02:18;;;;;;;5.90;4.90;;;16.20;99.90;;;;;;5066434;28;20536;-75
2022/08/09 04:04:44;;;;;;;5.30;4.80;;;16.20;99.90;;;;;;5068371;28;20487;-75
2022/08/09 04:07:11;;;;;;;7.23;5.10;;;16.10;99.90;;;;;;5062525;28;20524;-75
2022/08/09 04:09:39;;;;;;;5.83;5.13;;;16.10;99.90;;;;;;5060566;28;20449;-75
2022/08/09 04:12:35;;;;;;;8.80;5.30;;;16.10;99.90;;;;;;5064587;28;20562;-74
2022/08/09 04:15:02;;;;;;;5.50;5.00;;;16.10;99.90;;;;;;5053086;28;20460;-75
2022/08/09 04:17:28;;;;;;;5.70;5.17;;;16.00;99.90;;;;;;5060957;28;20449;-75
2022/08/09 04:19:55;;;;;;;6.40;4.93;;;16.00;99.90;;;;;;5059328;28;20506;-74
2022/08/09 04:22:21;;;;;;;9.43;5.10;;;16.00;99.90;;;;;;5054685;28;20813;-75
2022/08/09 04:24:50;;;;;;;5.57;5.00;;;16.00;99.90;;;;;;5065709;28;20906;-74
2022/08/09 04:27:17;;;;;;;9.60;5.10;;;16.00;99.90;;;;;;5062398;28;20497;-75
2022/08/09 04:29:44;;;;;;;5.10;4.60;;;16.00;99.90;;;;;;5069983;28;20440;-74
2022/08/09 04:32:10;;;;;;;5.83;4.80;;;16.00;99.90;;;;;;5061800;28;20475;-75
2022/08/09 04:34:37;;;;;;;6.53;5.00;;;16.00;99.90;;;;;;5057807;28;20439;-74
2022/08/09 04:37:04;;;;;;;6.87;5.10;;;16.00;99.90;;;;;;5055694;28;20452;-75
2022/08/09 04:39:31;;;;;;;7.23;5.47;;;16.00;99.90;;;;;;5063365;28;20452;-72
2022/08/09 04:41:59;;;;;;;5.10;4.60;;;16.00;99.90;;;;;;5062672;28;20475;-73
2022/08/09 04:44:26;;;;;;;6.90;4.60;;;16.10;99.90;;;;;;5053537;28;20479;-73
2022/08/09 04:46:53;;;;;;;5.57;4.63;;;16.20;99.90;;;;;;5063700;28;20455;-72
2022/08/09 04:49:20;;;;;;;6.83;5.33;;;16.30;99.90;;;;;;5063701;28;20488;-73
2022/08/09 04:51:46;;;;;;;8.93;5.17;;;16.40;99.90;;;;;;5064761;28;21004;-72
2022/08/09 04:54:13;;;;;;;4.20;3.90;;;16.50;99.90;;;;;;5060027;28;20471;-73
2022/08/09 04:56:40;;;;;;;5.10;4.60;;;16.70;99.90;;;;;;5062485;28;20484;-72
2022/08/09 04:59:08;;;;;;;4.90;4.43;;;16.80;99.90;;;;;;5056926;28;20498;-72
2022/08/09 05:01:34;;;;;;;8.87;4.67;;;17.00;99.90;;;;;;5061178;28;20464;-73
2022/08/09 05:04:01;;;;;;;9.53;5.20;;;17.10;99.90;;;;;;5062258;28;20491;-72
2022/08/09 05:06:28;;;;;;;9.30;5.37;;;17.20;99.90;;;;;;5063255;28;20423;-72
2022/08/09 05:08:55;;;;;;;16.10;5.80;;;17.20;99.90;;;;;;5056739;28;20445;-72
2022/08/09 05:11:22;;;;;;;12.93;5.20;;;17.20;99.90;;;;;;5060795;28;20479;-73
2022/08/09 05:13:48;;;;;;;7.90;4.73;;;17.30;99.90;;;;;;5063457;28;20796;-73
2022/08/09 05:16:16;;;;;;;5.30;4.00;;;17.40;99.90;;;;;;5066138;28;20423;-73
2022/08/09 05:18:43;;;;;;;9.40;5.00;;;17.50;99.90;;;;;;5057478;28;20521;-72
2022/08/09 05:21:11;;;;;;;5.70;4.77;;;17.60;99.90;;;;;;5063187;28;20439;-72
2022/08/09 05:23:37;;;;;;;5.37;4.83;;;17.70;99.90;;;;;;5062093;28;20491;-72
2022/08/09 05:26:04;;;;;;;11.20;4.20;;;17.90;99.90;;;;;;5062746;28;20427;-72
2022/08/09 05:28:31;;;;;;;8.70;4.70;;;18.10;99.90;;;;;;5064943;28;20909;-72
2022/08/09 05:30:57;;;;;;;8.93;5.03;;;18.10;99.90;;;;;;5062846;28;20472;-72
2022/08/09 05:33:25;;;;;;;5.50;4.17;;;18.20;99.90;;;;;;5059943;28;20426;-71
2022/08/09 05:35:52;;;;;;;5.53;4.10;;;18.30;99.90;;;;;;5062844;28;20472;-72
2022/08/09 05:38:18;;;;;;;4.60;3.70;;;18.30;99.90;;;;;;5059824;28;20465;-73
2022/08/09 05:40:45;;;;;;;7.00;4.90;;;18.40;99.90;;;;;;5058811;28;20473;-72
2022/08/09 05:43:12;;;;;;;5.13;4.33;;;18.40;99.90;;;;;;5063945;28;20953;-72
2022/08/09 05:45:38;;;;;;;11.10;4.50;;;18.60;99.90;;;;;;5060602;28;20480;-71
2022/08/09 05:48:06;;;;;;;6.20;4.50;;;18.70;99.90;;;;;;5057290;28;20996;-76
2022/08/09 05:50:34;;;;;;;9.93;4.40;;;18.90;99.90;;;;;;5057856;28;20518;-76
2022/08/09 05:53:00;;;;;;;15.50;4.50;;;19.00;99.90;;;;;;5060990;28;20456;-77
2022/08/09 05:55:27;;;;;;;13.90;5.40;;;19.10;99.90;;;;;;5061083;28;20481;-76
2022/08/09 05:57:53;;;;;;;6.40;4.70;;;19.40;99.90;;;;;;5057729;28;20452;-79
2022/08/09 06:00:20;;;;;;;7.77;4.70;;;19.60;99.90;;;;;;5058477;28;20452;-76
2022/08/09 06:02:47;;;;;;;9.23;4.40;;;19.70;99.90;;;;;;5055445;28;20465;-76
2022/08/09 06:05:14;;;;;;;5.53;5.00;;;19.70;99.90;;;;;;5053433;28;20480;-76
2022/08/09 06:07:42;;;;;;;9.10;5.00;;;19.70;99.90;;;;;;5055789;28;20535;-76
2022/08/09 06:10:09;;;;;;;9.10;5.20;;;19.80;99.90;;;;;;5055935;28;20427;-76
2022/08/09 06:12:36;;;;;;;10.37;4.80;;;19.90;99.90;;;;;;5056626;28;21101;-76
2022/08/09 06:15:03;;;;;;;9.73;5.30;;;20.30;99.90;;;;;;5055881;28;20934;-76
2022/08/09 06:17:29;;;;;;;6.33;4.53;;;20.50;99.90;;;;;;5056102;28;20423;-76
2022/08/09 06:19:56;;;;;;;5.37;4.63;;;20.90;99.90;;;;;;5056357;28;20506;-76
2022/08/09 06:22:23;;;;;;;7.90;4.37;;;21.20;99.90;;;;;;5054387;28;20479;-76
2022/08/09 06:24:50;;;;;;;8.83;4.10;;;21.40;99.90;;;;;;5054159;28;20501;-76
2022/08/09 06:27:17;;;;;;;11.23;3.90;;;21.50;99.90;;;;;;5055461;28;20482;-76
2022/08/09 06:29:44;;;;;;;9.60;4.30;;;21.70;99.90;;;;;;5054570;28;20452;-76
2022/08/09 06:32:11;;;;;;;11.33;4.27;;;21.80;99.90;;;;;;5053419;28;20446;-74
2022/08/09 06:34:37;;;;;;;8.03;4.37;;;21.90;99.90;;;;;;5054247;28;20476;-75
2022/08/09 06:37:05;;;;;;;14.60;4.97;;;22.10;99.90;;;;;;5054766;28;20948;-76
2022/08/09 06:39:32;;;;;;;11.10;4.77;;;22.10;99.90;;;;;;5055918;28;20841;-76
2022/08/09 06:41:59;;;;;;;8.50;3.50;;;22.20;99.90;;;;;;5054997;28;20493;-77
2022/08/09 06:44:26;;;;;;;10.83;4.00;;;22.20;99.90;;;;;;5056328;28;20481;-76
2022/08/09 06:46:53;;;;;;;9.83;4.13;;;22.30;99.90;;;;;;5054434;28;20455;-77
2022/08/09 06:49:19;;;;;;;6.00;4.13;;;22.50;99.90;;;;;;5055709;28;20894;-76
2022/08/09 06:51:46;;;;;;;6.03;4.50;;;22.60;99.90;;;;;;5054413;28;20479;-75
2022/08/09 06:54:13;;;;;;;7.87;4.43;;;22.80;99.90;;;;;;5054732;28;20951;-76
2022/08/09 06:56:40;;;;;;;5.80;4.40;;;22.90;99.90;;;;;;5054783;28;20554;-75
2022/08/09 06:59:08;;;;;;;7.90;4.50;;;23.00;99.90;;;;;;5055652;28;20997;-76
2022/08/09 07:01:34;;;;;;;10.33;4.30;;;23.10;99.90;;;;;;5055073;28;20475;-77
2022/08/09 07:04:01;;;;;;;4.83;4.33;;;23.30;99.90;;;;;;5055332;28;20460;-74
2022/08/09 07:06:27;;;;;;;13.73;4.30;;;23.40;99.90;;;;;;5055191;28;21028;-73
2022/08/09 07:08:54;;;;;;;6.50;4.37;;;23.50;99.90;;;;;;5055351;28;20447;-74
2022/08/09 07:11:21;;;;;;;14.40;4.17;;;23.50;99.90;;;;;;5055453;28;20487;-74
2022/08/09 07:13:47;;;;;;;17.00;5.17;;;23.70;99.90;;;;;;5054432;28;20530;-74
2022/08/09 07:16:15;;;;;;;10.40;4.60;;;23.60;99.90;;;;;;5054742;28;20505;-74
2022/08/09 07:18:42;;;;;;;5.67;4.70;;;23.60;99.90;;;;;;5054900;28;20444;-74
2022/08/09 07:21:09;;;;;;;5.93;4.07;;;23.70;99.90;;;;;;5053686;28;20467;-74
2022/08/09 07:23:35;;;;;;;10.77;4.70;;;23.70;99.90;;;;;;5055366;28;21223;-74
2022/08/09 07:26:02;;;;;;;4.90;4.50;;;23.80;99.90;;;;;;5053591;28;20908;-74
2022/08/09 07:28:29;;;;;;;6.47;4.33;;;23.80;99.90;;;;;;5054847;28;20460;-74
2022/08/09 07:30:56;;;;;;;7.80;3.80;;;23.80;99.90;;;;;;5024073;28;20471;-73
2022/08/09 07:33:25;;;;;;;7.23;3.60;;;23.90;99.90;;;;;;5056520;28;20444;-73
2022/08/09 07:35:52;;;;;;;13.83;4.00;;;24.10;99.90;;;;;;5058567;28;21000;-74
2022/08/09 07:38:19;;;;;;;4.40;4.03;;;24.10;99.90;;;;;;5058728;28;20459;-74
2022/08/09 07:40:45;;;;;;;8.90;3.90;;;24.20;99.90;;;;;;5057390;28;20467;-74
2022/08/09 07:43:12;;;;;;;9.70;4.43;;;24.30;99.90;;;;;;5058260;28;20795;-74
2022/08/09 07:45:38;;;;;;;6.80;3.60;;;24.30;99.90;;;;;;5057827;28;20476;-74
2022/08/09 07:48:06;;;;;;;8.23;4.10;;;24.50;99.90;;;;;;5059484;28;20456;-75
2022/08/09 07:50:39;;;;;;;8.17;4.60;;;24.80;99.90;;;;;;5058970;28;20560;-74
2022/08/09 07:53:06;;;;;;;8.27;4.20;;;24.90;99.90;;;;;;5058347;28;20523;-74
2022/08/09 07:55:32;;;;;;;11.17;3.60;;;25.10;99.90;;;;;;5057063;28;20468;-76
2022/08/09 07:57:59;;;;;;;7.63;4.07;;;25.30;99.90;;;;;;5058233;28;20504;-74
2022/08/09 08:00:28;;;;;;;12.13;3.90;;;25.50;99.90;;;;;;5058270;28;20461;-74
2022/08/09 08:02:55;;;;;;;7.40;4.30;;;25.70;99.90;;;;;;5058424;28;20467;-74
2022/08/09 08:05:22;;;;;;;6.63;4.10;;;25.80;99.90;;;;;;5058270;28;20532;-74
2022/08/09 08:07:50;;;;;;;8.30;3.93;;;25.80;99.90;;;;;;5058139;28;20499;-75
2022/08/09 08:10:17;;;;;;;10.53;4.17;;;25.90;99.90;;;;;;5057955;28;20456;-73
2022/08/09 08:12:44;;;;;;;9.40;3.90;;;26.00;99.90;;;;;;5057749;28;20447;-74
2022/08/09 08:15:12;;;;;;;7.90;4.17;;;26.20;99.90;;;;;;5056882;28;20805;-74
2022/08/09 08:17:39;;;;;;;9.73;3.57;;;26.40;99.90;;;;;;5058505;28;20453;-75
2022/08/09 08:20:06;;;;;;;15.20;4.37;;;26.50;99.90;;;;;;5059281;28;20883;-74
2022/08/09 08:22:33;;;;;;;8.20;4.00;;;26.80;99.90;;;;;;5059362;28;20471;-74
2022/08/09 08:25:01;;;;;;;7.53;3.77;;;26.80;99.90;;;;;;5059280;28;20552;-74
2022/08/09 08:27:27;;;;;;;5.10;3.87;;;27.00;99.90;;;;;;5057618;28;20877;-73
2022/08/09 08:29:54;;;;;;;13.00;3.40;;;27.10;99.90;;;;;;5057910;28;20467;-74
2022/08/09 08:32:21;;;;;;;11.37;4.30;;;27.30;99.90;;;;;;5057080;28;20525;-74
2022/08/09 08:34:48;;;;;;;7.60;3.77;;;27.40;99.90;;;;;;5057862;28;20444;-74
2022/08/09 08:37:15;;;;;;;6.40;3.67;;;27.50;99.20;;;;;;5057313;28;20504;-74
2022/08/09 08:39:42;;;;;;;7.10;4.20;;;27.40;99.30;;;;;;5057481;28;20452;-74
2022/08/09 08:42:12;;;;;;;5.00;3.53;;;27.50;99.30;;;;;;5057908;28;20476;-73
2022/08/09 08:44:41;;;;;;;10.33;3.70;;;27.70;99.60;;;;;;5058120;28;20585;-73
2022/08/09 08:47:08;;;;;;;6.87;3.63;;;27.90;98.90;;;;;;5056460;28;20447;-74
2022/08/09 08:49:37;;;;;;;6.67;3.40;;;28.10;97.80;;;;;;5057753;28;20452;-74
2022/08/09 08:52:05;;;;;;;6.90;3.37;;;28.30;97.80;;;;;;5057810;28;21007;-73
2022/08/09 08:54:31;;;;;;;6.00;3.10;;;28.30;97.00;;;;;;5056755;28;20501;-74
2022/08/09 08:56:58;;;;;;;7.00;3.50;;;28.20;96.40;;;;;;5057477;28;20464;-75
2022/08/09 08:59:26;;;;;;;9.13;3.17;;;28.30;96.60;;;;;;5057203;28;20475;-74
2022/08/09 09:01:53;;;;;;;4.13;3.60;;;28.50;96.70;;;;;;5056950;28;20518;-74
2022/08/09 09:04:22;;;;;;;5.83;3.50;;;28.70;95.70;;;;;;5056776;28;20543;-74
2022/08/09 09:06:51;;;;;;;6.63;2.90;;;28.90;95.90;;;;;;5057010;28;20498;-74
2022/08/09 09:09:21;;;;;;;5.00;3.13;;;28.90;92.70;;;;;;5057233;28;20474;-74
2022/08/09 09:11:48;;;;;;;4.37;2.63;;;28.80;92.80;;;;;;5056439;28;20511;-74
2022/08/09 09:14:17;;;;;;;5.90;3.00;;;28.70;91.40;;;;;;5056191;28;20457;-74
2022/08/09 09:16:46;;;;;;;6.73;2.80;;;28.80;92.20;;;;;;5057405;28;20501;-74
2022/08/09 09:19:12;;;;;;;3.70;2.60;;;28.80;92.00;;;;;;5056487;28;20456;-74
2022/08/09 09:22:01;;;;;;;4.10;3.30;;;29.00;92.20;;;;;;5056571;28;20542;-76
2022/08/09 09:24:29;;;;;;;2.70;2.50;;;29.30;91.30;;;;;;5057129;28;20451;-75
2022/08/09 09:26:56;;;;;;;6.23;3.13;;;29.50;91.20;;;;;;5056176;28;20480;-75
2022/08/09 09:29:31;;;;;;;2.57;2.37;;;29.70;91.30;;;;;;5056801;28;20512;-74
2022/08/09 09:31:59;;;;;;;5.40;2.70;;;29.90;90.40;;;;;;5055822;28;20513;-75
2022/08/09 09:34:26;;;;;;;5.63;3.03;;;30.00;90.50;;;;;;5057285;28;20501;-75
2022/08/09 09:36:54;;;;;;;5.47;2.53;;;30.00;88.60;;;;;;5056427;28;20505;-75
2022/08/09 09:39:22;;;;;;;3.00;2.20;;;30.00;87.00;;;;;;5057493;28;21441;-76
2022/08/09 09:41:49;;;;;;;6.67;2.20;;;29.90;85.90;;;;;;5056547;28;21038;-76
2022/08/09 09:44:22;;;;;;;3.30;2.50;;;29.80;86.90;;;;;;5057112;28;20452;-78
2022/08/09 09:46:49;;;;;;;6.40;2.60;;;29.80;86.90;;;;;;5055744;28;20536;-76
2022/08/09 09:49:21;;;;;;;3.80;2.40;;;29.90;86.50;;;;;;5056904;28;20292;-75
2022/08/09 09:51:48;;;;;;;3.50;2.73;;;29.80;86.50;;;;;;5055114;28;20545;-76
2022/08/09 09:54:17;;;;;;;2.67;2.20;;;29.80;85.20;;;;;;5055868;28;20452;-80
2022/08/09 09:56:46;;;;;;;4.47;2.20;;;29.70;84.10;;;;;;5057744;28;20456;-80
2022/08/09 09:59:15;;;;;;;2.47;2.20;;;29.60;85.80;;;;;;5058621;28;20452;-78
2022/08/09 10:01:42;;;;;;;3.37;2.27;;;29.70;85.40;;;;;;5055583;28;20471;-79
2022/08/09 10:04:14;;;;;;;3.70;2.50;;;29.90;86.60;;;;;;5056442;28;20453;-77
2022/08/09 10:06:45;;;;;;;3.43;2.53;;;30.10;85.20;;;;;;5056958;28;20546;-78
2022/08/09 10:09:13;;;;;;;3.63;2.60;;;30.00;82.10;;;;;;5056907;28;20456;-78
2022/08/09 10:11:40;;;;;;;5.93;2.33;;;29.80;82.70;;;;;;5055249;28;20476;-79
2022/08/09 10:14:21;;;;;;;2.53;2.30;;;29.70;83.00;;;;;;5058165;28;20448;-78
2022/08/09 10:16:48;;;;;;;5.73;2.40;;;29.70;84.50;;;;;;5075442;28;20451;-78
2022/08/09 10:19:15;;;;;;;7.20;2.20;;;29.80;84.50;;;;;;5080832;28;20456;-82
2022/08/09 10:21:51;;;;;;;3.80;2.50;;;30.00;83.50;;;;;;5067738;28;20502;-80
2022/08/09 10:24:19;;;;;;;4.30;2.40;;;30.20;83.20;;;;;;5058937;28;20459;-81
2022/08/09 10:26:46;;;;;;;3.90;2.23;;;30.40;81.60;;;;;;5060358;28;20534;-78
2022/08/09 10:29:13;;;;;;;4.90;2.80;;;30.10;79.60;;;;;;5060438;28;20526;-79
2022/08/09 10:31:41;;;;;;;11.03;3.20;;;29.90;81.00;;;;;;5055309;28;20480;-79
2022/08/09 10:34:11;;;;;;;3.10;2.17;;;29.90;81.10;;;;;;5057782;28;20456;-78
2022/08/09 10:36:38;;;;;;;5.30;2.90;;;30.10;82.20;;;;;;5058553;28;20436;-79
2022/08/09 10:39:07;;;;;;;6.00;2.53;;;30.40;81.40;;;;;;5056593;28;20449;-78
2022/08/09 10:41:35;;;;;;;4.00;2.50;;;30.80;80.00;;;;;;5058308;28;20475;-77
2022/08/09 10:44:02;;;;;;;4.03;2.47;;;30.90;80.50;;;;;;5058052;28;20444;-78
2022/08/09 10:46:51;;;;;;;6.47;2.23;;;31.10;78.40;;;;;;5055839;28;20509;-78
2022/08/09 10:49:23;;;;;;;4.90;2.30;;;31.30;77.90;;;;;;5055928;28;20463;-78
2022/08/09 10:51:59;;;;;;;3.00;1.90;;;31.30;79.20;;;;;;5056200;28;20467;-79
2022/08/09 10:54:27;;;;;;;5.83;2.23;;;31.50;77.50;;;;;;5056549;28;20539;-79
2022/08/09 10:57:07;;;;;;;3.13;2.43;;;31.50;77.10;;;;;;5056172;28;20465;-79
2022/08/09 10:59:34;;;;;;;8.50;2.00;;;31.50;77.70;;;;;;5055643;28;20488;-78
2022/08/09 11:02:01;;;;;;;5.50;2.33;;;31.40;75.70;;;;;;5055319;28;20463;-79
2022/08/09 11:04:29;;;;;;;4.57;2.00;;;31.30;77.70;;;;;;5055655;28;20766;-78
2022/08/09 11:07:28;;;;;;;4.20;2.10;;;31.40;77.00;;;;;;5056214;28;20577;-77
2022/08/09 11:09:56;;;;;;;3.07;1.90;;;31.30;77.60;;;;;;5055881;28;20548;-78
2022/08/09 11:12:24;;;;;;;3.60;2.20;;;31.50;75.90;;;;;;5056340;28;20528;-79
2022/08/09 11:14:53;;;;;;;3.57;2.10;;;31.40;76.80;;;;;;5056814;28;20459;-79
2022/08/09 11:17:44;;;;;;;7.07;2.30;;;31.50;77.50;;;;;;5055588;28;20448;-79
2022/08/09 11:20:12;;;;;;;6.30;2.20;;;31.70;76.00;;;;;;5050355;28;20529;-79
2022/08/09 11:22:59;;;;;;;2.00;1.73;;;31.40;75.40;;;;;;5057035;28;20562;-79
2022/08/09 11:25:40;;;;;;;2.87;2.10;;;31.60;75.90;;;;;;5059374;28;20505;-79
2022/08/09 11:28:30;;;;;;;3.60;2.20;;;31.80;74.10;;;;;;5058876;28;20452;-79
2022/08/09 11:30:57;;;;;;;2.43;2.27;;;31.70;74.50;;;;;;5054619;28;20529;-79
2022/08/09 11:33:41;;;;;;;2.67;2.00;;;31.60;74.30;;;;;;5056447;28;20971;-79
2022/08/09 11:36:09;;;;;;;2.77;1.97;;;31.80;75.80;;;;;;5056812;28;20472;-78
2022/08/09 11:38:36;;;;;;;3.30;2.23;;;32.20;75.80;;;;;;5057295;28;20436;-78
2022/08/09 11:41:27;;;;;;;3.60;1.70;;;32.60;73.50;;;;;;5053679;28;20443;-79
2022/08/09 11:43:54;;;;;;;5.63;2.57;;;32.60;74.70;;;;;;5057330;28;20197;-79
2022/08/09 11:46:21;;;;;;;2.43;2.00;;;32.70;73.40;;;;;;5055888;28;20498;-78
2022/08/09 11:48:50;;;;;;;4.23;2.40;;;32.60;72.60;;;;;;5057221;28;20529;-79
2022/08/09 11:51:19;;;;;;;2.27;2.03;;;32.50;72.00;;;;;;5055321;28;20474;-80
2022/08/09 11:53:46;;;;;;;4.80;2.20;;;32.20;72.20;;;;;;5054886;28;20558;-78
2022/08/09 11:56:29;;;;;;;4.50;1.93;;;32.10;72.50;;;;;;5055208;28;20451;-78
2022/08/09 11:58:57;;;;;;;2.97;2.13;;;32.30;74.00;;;;;;5055373;28;20474;-78
2022/08/09 12:01:36;;;;;;;4.30;2.10;;;32.20;72.50;;;;;;5054084;28;20476;-75
2022/08/09 12:04:06;;;;;;;5.33;2.40;;;32.20;72.60;;;;;;5054213;28;20452;-76
2022/08/09 12:06:34;;;;;;;3.83;2.23;;;32.20;73.10;;;;;;5055642;28;20482;-79
2022/08/09 12:09:03;;;;;;;3.80;2.20;;;32.20;73.10;;;;;;5055520;28;20482;-79
2022/08/09 12:11:31;;;;;;;3.30;1.90;;;32.40;73.00;;;;;;5054630;28;20468;-77
2022/08/09 12:14:02;;;;;;;2.33;2.03;;;32.50;72.50;;;;;;5056209;28;20498;-80
2022/08/09 12:16:34;;;;;;;2.43;2.23;;;32.80;71.50;;;;;;5055937;28;20456;-80
2022/08/09 12:19:04;;;;;;;2.47;2.10;;;33.00;70.60;;;;;;5055703;28;20460;-76
2022/08/09 12:21:32;;;;;;;3.63;1.97;;;32.90;71.70;;;;;;5056466;28;21107;-75
2022/08/09 12:24:01;;;;;;;2.27;2.10;;;32.70;72.50;;;;;;5058050;28;20482;-75
2022/08/09 12:26:39;;;;;;;4.70;2.10;;;32.80;71.60;;;;;;5058399;28;20480;-77
2022/08/09 12:29:07;;;;;;;4.30;2.40;;;32.80;70.40;;;;;;5057421;28;20943;-77
2022/08/09 12:31:34;;;;;;;2.40;2.10;;;32.80;71.50;;;;;;5058068;28;21324;-76
2022/08/09 12:34:01;;;;;;;6.53;2.30;;;32.80;70.40;;;;;;5059448;28;20520;-76
2022/08/09 12:36:28;;;;;;;2.80;2.60;;;32.90;70.90;;;;;;5058712;28;20553;-77
2022/08/09 12:38:56;;;;;;;2.60;2.40;;;33.00;70.40;;;;;;5058137;28;20455;-75
2022/08/09 12:41:28;;;;;;;5.27;2.20;;;33.20;70.70;;;;;;5057707;28;20533;-77
2022/08/09 12:43:58;;;;;;;4.43;2.40;;;33.40;69.60;;;;;;5057868;28;21752;-76
2022/08/09 12:46:26;;;;;;;3.03;2.13;;;33.60;69.30;;;;;;5059237;28;20515;-77
2022/08/09 12:48:54;;;;;;;4.00;2.30;;;33.70;68.50;;;;;;5059196;28;20867;-76
2022/08/09 12:51:22;;;;;;;2.40;2.13;;;33.70;67.40;;;;;;5057959;28;20558;-75
2022/08/09 12:53:59;;;;;;;5.53;2.30;;;33.40;66.90;;;;;;5057958;28;20514;-76